createdAt,value
2018-04-10T00:01:03.283Z,36.15
2018-04-10T00:02:12.425Z,36.44
2018-04-10T00:03:21.312Z,36.44
2018-04-10T00:04:30.708Z,36.44
2018-04-10T00:05:39.605Z,36.44
2018-04-10T00:06:48.550Z,36.24
2018-04-10T00:07:57.967Z,36.44
2018-04-10T00:09:07.121Z,36.63
2018-04-10T00:10:16.262Z,36.53
2018-04-10T00:11:25.153Z,36.34
2018-04-10T00:12:34.552Z,36.53
2018-04-10T00:13:43.713Z,36.63
2018-04-10T00:14:53.157Z,36.53
2018-04-10T00:16:02.064Z,36.24
2018-04-10T00:17:10.967Z,36.52
2018-04-10T00:18:19.861Z,36.34
2018-04-10T00:19:28.490Z,36.34
2018-04-10T00:20:37.381Z,36.42
2018-04-10T00:21:46.568Z,36.24
2018-04-10T00:22:55.998Z,36.52
2018-04-10T00:24:05.153Z,36.32
2018-04-10T00:25:14.549Z,36.53
2018-04-10T00:26:23.949Z,36.34
2018-04-10T00:27:33.121Z,36.32
2018-04-10T00:28:42.549Z,36.34
2018-04-10T00:29:51.698Z,36.32
2018-04-10T00:31:00.838Z,36.34
2018-04-10T00:32:09.980Z,36.34
2018-04-10T00:33:19.134Z,36.44
2018-04-10T00:34:28.293Z,36.44
2018-04-10T00:35:37.474Z,36.44
2018-04-10T00:36:46.881Z,36.44
2018-04-10T00:37:56.863Z,36.44
2018-04-10T00:39:05.759Z,36.42
2018-04-10T00:40:15.180Z,36.44
2018-04-10T00:41:24.335Z,36.34
2018-04-10T00:42:33.760Z,36.44
2018-04-10T00:43:42.654Z,36.42
2018-04-10T00:44:51.820Z,36.44
2018-04-10T00:46:00.975Z,36.44
2018-04-10T00:47:09.876Z,36.44
2018-04-10T00:48:18.763Z,36.53
2018-04-10T00:49:27.413Z,36.53
2018-04-10T00:50:36.582Z,36.44
2018-04-10T00:51:45.731Z,36.44
2018-04-10T00:52:54.390Z,36.53
2018-04-10T00:54:03.621Z,36.42
2018-04-10T00:55:12.321Z,36.44
2018-04-10T00:56:21.212Z,36.53
2018-04-10T00:57:29.851Z,36.53
2018-04-10T00:58:38.493Z,36.53
2018-04-10T00:59:47.944Z,36.44
2018-04-10T01:00:57.110Z,36.44
2018-04-10T01:02:05.815Z,36.44
2018-04-10T01:03:14.703Z,36.63
2018-04-10T01:04:24.369Z,36.53
2018-04-10T01:05:33.533Z,36.63
2018-04-10T01:06:42.498Z,36.53
2018-04-10T01:07:51.393Z,36.53
2018-04-10T01:09:00.317Z,36.63
2018-04-10T01:10:08.969Z,36.53
2018-04-10T01:11:18.392Z,36.34
2018-04-10T01:12:27.289Z,36.34
2018-04-10T01:13:36.720Z,36.53
2018-04-10T01:14:46.391Z,36.44
2018-04-10T01:15:55.825Z,36.34
2018-04-10T01:17:04.705Z,36.63
2018-04-10T01:18:13.588Z,36.63
2018-04-10T01:19:22.793Z,36.63
2018-04-10T01:20:31.978Z,36.44
2018-04-10T01:21:41.132Z,36.53
2018-04-10T01:22:49.784Z,36.44
2018-04-10T01:23:59.209Z,36.44
2018-04-10T01:25:07.842Z,36.42
2018-04-10T01:26:17.249Z,36.42
2018-04-10T01:27:26.681Z,36.63
2018-04-10T01:28:35.317Z,36.53
2018-04-10T01:29:44.518Z,36.42
2018-04-10T01:30:53.681Z,36.52
2018-04-10T01:32:02.863Z,36.53
2018-04-10T01:33:12.019Z,36.53
2018-04-10T01:34:20.911Z,36.53
2018-04-10T01:35:29.808Z,36.53
2018-04-10T01:36:39.202Z,36.53
2018-04-10T01:37:47.860Z,36.52
2018-04-10T01:38:57.018Z,36.53
2018-04-10T01:40:05.909Z,36.53
2018-04-10T01:41:15.084Z,36.53
2018-04-10T01:42:23.993Z,36.52
2018-04-10T01:43:32.627Z,36.53
2018-04-10T01:44:41.522Z,36.61
2018-04-10T01:45:50.412Z,36.61
2018-04-10T01:46:59.583Z,36.71
2018-04-10T01:48:08.504Z,36.63
2018-04-10T01:49:17.922Z,36.63
2018-04-10T01:50:27.060Z,36.52
2018-04-10T01:51:35.951Z,36.72
2018-04-10T01:52:44.849Z,36.72
2018-04-10T01:53:53.785Z,36.61
2018-04-10T01:55:02.426Z,36.61
2018-04-10T01:56:11.074Z,36.53
2018-04-10T01:57:20.222Z,36.34
2018-04-10T01:58:29.112Z,36.72
2018-04-10T01:59:38.011Z,36.61
2018-04-10T02:00:47.161Z,36.8
2018-04-10T02:01:56.058Z,36.63
2018-04-10T02:03:05.214Z,36.8
2018-04-10T02:04:14.361Z,36.71
2018-04-10T02:05:23.255Z,36.72
2018-04-10T02:06:32.148Z,36.8
2018-04-10T02:07:41.056Z,36.72
2018-04-10T02:08:50.455Z,36.71
2018-04-10T02:10:00.156Z,36.71
2018-04-10T02:11:09.068Z,36.52
2018-04-10T02:12:18.221Z,36.72
2018-04-10T02:13:27.125Z,36.8
2018-04-10T02:14:36.322Z,36.52
2018-04-10T02:15:45.005Z,36.61
2018-04-10T02:16:54.417Z,36.71
2018-04-10T02:18:03.328Z,36.71
2018-04-10T02:19:12.244Z,36.72
2018-04-10T02:20:21.388Z,36.8
2018-04-10T02:21:30.533Z,36.71
2018-04-10T02:22:39.683Z,36.82
2018-04-10T02:23:48.848Z,36.53
2018-04-10T02:24:58.005Z,36.82
2018-04-10T02:26:06.703Z,36.72
2018-04-10T02:27:15.858Z,36.71
2018-04-10T02:28:25.013Z,36.82
2018-04-10T02:29:34.433Z,36.82
2018-04-10T02:30:43.345Z,36.8
2018-04-10T02:31:52.795Z,36.72
2018-04-10T02:33:01.694Z,36.8
2018-04-10T02:34:11.102Z,36.72
2018-04-10T02:35:20.252Z,36.71
2018-04-10T02:36:30.200Z,36.8
2018-04-10T02:37:39.866Z,36.71
2018-04-10T02:38:49.537Z,36.71
2018-04-10T02:39:58.945Z,36.71
2018-04-10T02:41:08.104Z,36.8
2018-04-10T02:42:17.286Z,36.8
2018-04-10T02:43:26.952Z,36.71
2018-04-10T02:44:35.846Z,36.61
2018-04-10T02:45:45.281Z,36.8
2018-04-10T02:46:54.450Z,36.8
2018-04-10T02:48:03.614Z,36.61
2018-04-10T02:49:12.528Z,36.61
2018-04-10T02:50:22.208Z,36.61
2018-04-10T02:51:31.620Z,36.8
2018-04-10T02:52:40.772Z,36.61
2018-04-10T02:53:50.181Z,36.61
2018-04-10T02:54:59.074Z,36.71
2018-04-10T02:56:08.473Z,36.71
2018-04-10T02:57:17.361Z,36.61
2018-04-10T02:58:26.021Z,36.71
2018-04-10T02:59:34.900Z,36.9
2018-04-10T03:00:43.815Z,36.9
2018-04-10T03:01:53.227Z,36.71
2018-04-10T03:03:02.370Z,36.8
2018-04-10T03:04:11.535Z,36.9
2018-04-10T03:05:20.685Z,36.71
2018-04-10T03:06:29.591Z,36.8
2018-04-10T03:07:38.741Z,36.92
2018-04-10T03:08:47.899Z,36.71
2018-04-10T03:09:57.039Z,36.71
2018-04-10T03:11:06.437Z,36.8
2018-04-10T03:12:15.601Z,36.9
2018-04-10T03:13:24.238Z,36.9
2018-04-10T03:14:33.399Z,36.8
2018-04-10T03:15:42.552Z,36.82
2018-04-10T03:16:51.990Z,36.9
2018-04-10T03:18:00.904Z,36.8
2018-04-10T03:19:09.820Z,36.9
2018-04-10T03:20:18.713Z,36.8
2018-04-10T03:21:27.876Z,36.82
2018-04-10T03:22:37.285Z,36.71
2018-04-10T03:23:46.940Z,36.8
2018-04-10T03:24:56.373Z,36.9
2018-04-10T03:26:05.774Z,36.8
2018-04-10T03:27:15.180Z,36.82
2018-04-10T03:28:24.063Z,36.82
2018-04-10T03:29:33.212Z,36.8
2018-04-10T03:30:42.377Z,36.8
2018-04-10T03:31:51.019Z,36.71
2018-04-10T03:33:00.418Z,36.8
2018-04-10T03:34:09.562Z,36.71
2018-04-10T03:35:18.970Z,36.82
2018-04-10T03:36:28.396Z,36.9
2018-04-10T03:37:37.538Z,36.8
2018-04-10T03:38:46.425Z,36.9
2018-04-10T03:39:55.618Z,36.9
2018-04-10T03:41:05.292Z,37
2018-04-10T03:42:14.432Z,36.71
2018-04-10T03:43:23.583Z,36.9
2018-04-10T03:44:32.997Z,36.9
2018-04-10T03:45:42.407Z,36.9
2018-04-10T03:46:51.832Z,36.71
2018-04-10T03:48:00.469Z,36.71
2018-04-10T03:49:09.363Z,36.9
2018-04-10T03:50:18.765Z,37
2018-04-10T03:51:28.190Z,37
2018-04-10T03:52:37.072Z,37
2018-04-10T03:53:45.741Z,36.9
2018-04-10T03:54:54.635Z,36.9
2018-04-10T03:56:04.041Z,37
2018-04-10T03:57:13.456Z,36.9
2018-04-10T03:58:22.384Z,36.9
2018-04-10T03:59:31.539Z,37
2018-04-10T04:00:40.941Z,36.61
2018-04-10T04:01:49.590Z,37
2018-04-10T04:02:58.991Z,36.61
2018-04-10T04:04:08.149Z,36.9
2018-04-10T04:05:17.297Z,36.61
2018-04-10T04:06:25.969Z,36.61
2018-04-10T04:07:35.128Z,36.71
2018-04-10T04:08:44.015Z,36.61
2018-04-10T04:09:53.703Z,36.71
2018-04-10T04:11:02.598Z,37
2018-04-10T04:12:12.264Z,36.61
2018-04-10T04:13:21.421Z,36.9
2018-04-10T04:14:30.824Z,36.61
2018-04-10T04:15:40.239Z,36.61
2018-04-10T04:16:49.391Z,36.61
2018-04-10T04:17:58.804Z,36.61
2018-04-10T04:19:08.320Z,36.61
2018-04-10T04:20:17.521Z,36.61
2018-04-10T04:21:26.954Z,36.8
2018-04-10T04:22:35.868Z,36.8
2018-04-10T04:23:45.090Z,36.8
2018-04-10T04:24:54.496Z,36.71
2018-04-10T04:26:04.246Z,36.61
2018-04-10T04:27:13.479Z,36.71
2018-04-10T04:28:22.112Z,36.71
2018-04-10T04:29:30.998Z,36.61
2018-04-10T04:30:39.892Z,36.8
2018-04-10T04:31:49.310Z,36.71
2018-04-10T04:32:58.490Z,36.71
2018-04-10T04:34:07.112Z,37
2018-04-10T04:35:15.742Z,36.9
2018-04-10T04:36:24.624Z,36.71
2018-04-10T04:37:33.529Z,36.9
2018-04-10T04:38:42.663Z,36.9
2018-04-10T04:39:52.077Z,36.61
2018-04-10T04:41:00.964Z,36.9
2018-04-10T04:42:10.648Z,36.61
2018-04-10T04:43:20.558Z,37
2018-04-10T04:44:29.450Z,36.9
2018-04-10T04:45:38.367Z,37
2018-04-10T04:46:47.064Z,36.61
2018-04-10T04:47:55.986Z,36.71
2018-04-10T04:49:05.175Z,36.71
2018-04-10T04:50:14.322Z,36.9
2018-04-10T04:51:23.208Z,36.8
2018-04-10T04:52:33.155Z,36.71
2018-04-10T04:53:42.581Z,36.71
2018-04-10T04:54:51.983Z,36.71
2018-04-10T04:56:01.384Z,36.8
2018-04-10T04:57:10.323Z,36.9
2018-04-10T04:58:19.729Z,36.71
2018-04-10T04:59:28.879Z,36.9
2018-04-10T05:00:38.149Z,36.8
2018-04-10T05:01:47.068Z,36.71
2018-04-10T05:02:56.511Z,36.8
2018-04-10T05:04:05.668Z,36.71
2018-04-10T05:05:15.076Z,36.71
2018-04-10T05:06:24.524Z,36.71
2018-04-10T05:07:33.696Z,36.71
2018-04-10T05:08:43.100Z,36.71
2018-04-10T05:09:52.244Z,36.72
2018-04-10T05:11:01.391Z,36.8
2018-04-10T05:12:10.535Z,36.72
2018-04-10T05:13:19.422Z,36.8
2018-04-10T05:14:28.850Z,36.71
2018-04-10T05:15:37.742Z,36.71
2018-04-10T05:16:47.138Z,36.71
2018-04-10T05:17:56.814Z,36.71
2018-04-10T05:19:05.723Z,36.71
2018-04-10T05:20:14.869Z,36.9
2018-04-10T05:21:24.008Z,36.71
2018-04-10T05:22:33.425Z,36.8
2018-04-10T05:23:42.575Z,36.72
2018-04-10T05:24:52.012Z,36.8
2018-04-10T05:26:01.175Z,36.71
2018-04-10T05:27:10.078Z,36.92
2018-04-10T05:28:19.754Z,36.71
2018-04-10T05:29:28.927Z,37
2018-04-10T05:30:38.323Z,36.63
2018-04-10T05:31:47.475Z,36.63
2018-04-10T05:32:56.633Z,36.72
2018-04-10T05:34:06.072Z,36.9
2018-04-10T05:35:15.481Z,36.92
2018-04-10T05:36:25.154Z,36.61
2018-04-10T05:37:34.050Z,36.9
2018-04-10T05:38:42.992Z,37
2018-04-10T05:39:52.144Z,36.92
2018-04-10T05:41:01.289Z,37
2018-04-10T05:42:10.451Z,37
2018-04-10T05:43:19.372Z,36.9
2018-04-10T05:44:29.479Z,37
2018-04-10T05:45:38.670Z,37.02
2018-04-10T05:46:48.068Z,37
2018-04-10T05:47:57.243Z,37.1
2018-04-10T05:49:06.419Z,37.02
2018-04-10T05:50:15.329Z,36.9
2018-04-10T05:51:24.238Z,37.1
2018-04-10T05:52:33.664Z,37
2018-04-10T05:53:43.154Z,37.19
2018-04-10T05:54:52.565Z,37.1
2018-04-10T05:56:02.254Z,37
2018-04-10T05:57:11.932Z,36.9
2018-04-10T05:58:20.893Z,36.9
2018-04-10T05:59:30.358Z,37
2018-04-10T06:00:39.764Z,37.1
2018-04-10T06:01:48.411Z,37.1
2018-04-10T06:02:58.116Z,36.9
2018-04-10T06:04:07.316Z,36.8
2018-04-10T06:05:16.202Z,37.1
2018-04-10T06:06:25.626Z,37.1
2018-04-10T06:07:35.040Z,37.19
2018-04-10T06:08:44.185Z,37.29
2018-04-10T06:09:53.345Z,37
2018-04-10T06:11:02.851Z,37.19
2018-04-10T06:12:12.000Z,37.19
2018-04-10T06:13:20.659Z,37.3
2018-04-10T06:14:29.557Z,36.92
2018-04-10T06:15:38.447Z,37.19
2018-04-10T06:16:47.378Z,37.19
2018-04-10T06:17:56.828Z,37.29
2018-04-10T06:19:05.479Z,37.29
2018-04-10T06:20:14.664Z,37.1
2018-04-10T06:21:24.195Z,37.21
2018-04-10T06:22:32.832Z,37.19
2018-04-10T06:23:42.492Z,37.1
2018-04-10T06:24:51.676Z,37.19
2018-04-10T06:26:01.121Z,37.12
2018-04-10T06:27:09.798Z,36.92
2018-04-10T06:28:19.220Z,37
2018-04-10T06:29:28.387Z,37
2018-04-10T06:30:38.057Z,37.02
2018-04-10T06:31:46.988Z,36.92
2018-04-10T06:32:55.884Z,37.02
2018-04-10T06:34:05.313Z,37
2018-04-10T06:35:14.487Z,37.02
2018-04-10T06:36:23.386Z,37.1
2018-04-10T06:37:32.544Z,37.12
2018-04-10T06:38:41.703Z,37.19
2018-04-10T06:39:50.866Z,37.19
2018-04-10T06:41:00.022Z,37.3
2018-04-10T06:42:09.210Z,37.29
2018-04-10T06:43:18.363Z,37.19
2018-04-10T06:44:27.779Z,37.21
2018-04-10T06:45:36.964Z,37.12
2018-04-10T06:46:46.109Z,37.12
2018-04-10T06:47:55.579Z,37.4
2018-04-10T06:49:05.027Z,37.3
2018-04-10T06:50:14.184Z,37.3
2018-04-10T06:51:23.127Z,37.3
2018-04-10T06:52:32.813Z,37.3
2018-04-10T06:53:41.709Z,37.4
2018-04-10T06:54:50.608Z,37.3
2018-04-10T06:56:00.019Z,37.3
2018-04-10T06:57:09.459Z,37.29
2018-04-10T06:58:18.624Z,37.3
2018-04-10T06:59:27.789Z,37.3
2018-04-10T07:00:37.194Z,37.3
2018-04-10T07:01:46.343Z,37.3
2018-04-10T07:02:55.506Z,37.3
2018-04-10T07:04:04.659Z,37.3
2018-04-10T07:05:13.555Z,37.3
2018-04-10T07:06:22.454Z,37.3
2018-04-10T07:07:31.617Z,37.3
2018-04-10T07:08:40.779Z,37.3
2018-04-10T07:09:50.183Z,37.29
2018-04-10T07:10:59.370Z,37.38
2018-04-10T07:12:08.027Z,37.3
2018-04-10T07:13:17.734Z,37.3
2018-04-10T07:14:27.551Z,37.3
2018-04-10T07:15:36.962Z,37.3
2018-04-10T07:16:46.624Z,37.4
2018-04-10T07:17:55.802Z,37.3
2018-04-10T07:19:04.705Z,37.4
2018-04-10T07:20:13.867Z,37.4
2018-04-10T07:21:22.769Z,37.3
2018-04-10T07:22:31.914Z,37.3
2018-04-10T07:23:40.846Z,37.21
2018-04-10T07:24:49.769Z,37.3
2018-04-10T07:25:59.445Z,37.3
2018-04-10T07:27:08.354Z,37.3
2018-04-10T07:28:18.057Z,37.3
2018-04-10T07:29:27.205Z,37.3
2018-04-10T07:30:36.889Z,37.3
2018-04-10T07:31:46.293Z,37.3
2018-04-10T07:32:55.461Z,37.3
2018-04-10T07:34:04.411Z,37.3
2018-04-10T07:35:14.179Z,37.3
2018-04-10T07:36:23.334Z,37.3
2018-04-10T07:37:32.509Z,37.29
2018-04-10T07:38:41.929Z,37.3
2018-04-10T07:39:51.966Z,37.3
2018-04-10T07:41:01.644Z,37.4
2018-04-10T07:42:11.066Z,37.3
2018-04-10T07:43:19.979Z,37.3
2018-04-10T07:44:28.631Z,37.3
2018-04-10T07:45:37.787Z,37.3
2018-04-10T07:46:47.228Z,37.29
2018-04-10T07:47:56.403Z,37.3
2018-04-10T07:49:05.587Z,37.3
2018-04-10T07:50:14.219Z,37.3
2018-04-10T07:51:23.159Z,37.4
2018-04-10T07:52:32.565Z,37.3
2018-04-10T07:53:41.738Z,37.3
2018-04-10T07:54:51.180Z,37.29
2018-04-10T07:56:00.081Z,37.3
2018-04-10T07:57:09.247Z,37.3
2018-04-10T07:58:18.400Z,37.21
2018-04-10T07:59:27.550Z,37.3
2018-04-10T08:00:37.005Z,37.3
2018-04-10T08:01:46.527Z,37.4
2018-04-10T08:02:55.425Z,37.3
2018-04-10T08:04:04.090Z,37.3
2018-04-10T08:05:13.256Z,37.21
2018-04-10T08:06:22.425Z,37.3
2018-04-10T08:07:32.113Z,37.3
2018-04-10T08:08:41.266Z,37.3
2018-04-10T08:09:50.694Z,37.3
2018-04-10T08:11:00.132Z,37.3
2018-04-10T08:12:09.031Z,37.3
2018-04-10T08:13:18.471Z,37.4
2018-04-10T08:14:27.387Z,37.3
2018-04-10T08:15:36.790Z,37.3
2018-04-10T08:16:46.458Z,37.29
2018-04-10T08:17:55.640Z,37.3
2018-04-10T08:19:04.806Z,37.19
2018-04-10T08:20:14.262Z,37.3
2018-04-10T08:21:23.166Z,37.3
2018-04-10T08:22:32.602Z,37.29
2018-04-10T08:23:41.838Z,37.3
2018-04-10T08:24:50.748Z,37.1
2018-04-10T08:25:59.673Z,37.4
2018-04-10T08:27:09.271Z,37.21
2018-04-10T08:28:18.680Z,37.3
2018-04-10T08:29:28.136Z,37.21
2018-04-10T08:30:37.048Z,37.21
2018-04-10T08:31:46.202Z,37.3
2018-04-10T08:32:55.642Z,37.3
2018-04-10T08:34:04.280Z,37.3
2018-04-10T08:35:13.191Z,37.12
2018-04-10T08:36:22.861Z,37.3
2018-04-10T08:37:32.008Z,37.3
2018-04-10T08:38:41.418Z,37.21
2018-04-10T08:39:50.316Z,37.1
2018-04-10T08:40:58.959Z,37.12
2018-04-10T08:42:08.633Z,37.19
2018-04-10T08:43:17.546Z,37.21
2018-04-10T08:44:26.963Z,37.21
2018-04-10T08:45:35.868Z,37.21
2018-04-10T08:46:44.801Z,37.12
2018-04-10T08:47:53.970Z,37.12
2018-04-10T08:49:03.132Z,37.12
2018-04-10T08:50:11.797Z,37.02
2018-04-10T08:51:20.966Z,37.02
2018-04-10T08:52:30.422Z,37
2018-04-10T08:53:40.098Z,37.21
2018-04-10T08:54:49.027Z,37.02
2018-04-10T08:55:58.218Z,37.12
2018-04-10T08:57:07.403Z,37.21
2018-04-10T08:58:16.303Z,37.12
2018-04-10T08:59:25.479Z,37.1
2018-04-10T09:00:34.651Z,37.12
2018-04-10T09:01:43.834Z,37.3
2018-04-10T09:02:53.285Z,37.12
2018-04-10T09:04:02.708Z,37.12
2018-04-10T09:05:12.126Z,37.02
2018-04-10T09:06:21.380Z,36.92
2018-04-10T09:07:30.288Z,37.02
2018-04-10T09:08:39.469Z,36.92
2018-04-10T09:09:48.388Z,37.02
2018-04-10T09:10:57.606Z,36.92
2018-04-10T09:12:07.040Z,36.82
2018-04-10T09:13:16.205Z,37.02
2018-04-10T09:14:25.886Z,37.02
2018-04-10T09:15:35.038Z,37.02
2018-04-10T09:16:44.701Z,36.92
2018-04-10T09:17:54.408Z,36.92
2018-04-10T09:19:03.832Z,37.02
2018-04-10T09:20:12.981Z,37.02
2018-04-10T09:21:22.397Z,36.92
2018-04-10T09:22:31.803Z,37.12
2018-04-10T09:23:41.481Z,37.02
2018-04-10T09:24:50.642Z,37.02
2018-04-10T09:26:00.320Z,37.02
2018-04-10T09:27:09.519Z,37.21
2018-04-10T09:28:18.918Z,37.12
2018-04-10T09:29:28.327Z,36.92
2018-04-10T09:30:37.750Z,37.12
2018-04-10T09:31:46.927Z,37.02
2018-04-10T09:32:55.850Z,37.12
2018-04-10T09:34:04.756Z,37.21
2018-04-10T09:35:13.660Z,37.12
2018-04-10T09:36:22.813Z,37.21
2018-04-10T09:37:32.014Z,37.12
2018-04-10T09:38:41.182Z,37.21
2018-04-10T09:39:50.592Z,37.3
2018-04-10T09:40:59.754Z,37.3
2018-04-10T09:42:09.696Z,37.3
2018-04-10T09:43:19.105Z,37.4
2018-04-10T09:44:28.280Z,37.12
2018-04-10T09:45:37.951Z,37.21
2018-04-10T09:46:47.400Z,37.3
2018-04-10T09:47:56.820Z,37.21
2018-04-10T09:49:06.009Z,37.3
2018-04-10T09:50:15.516Z,37.4
2018-04-10T09:51:24.685Z,37.21
2018-04-10T09:52:33.583Z,37.21
2018-04-10T09:53:42.984Z,37.3
2018-04-10T09:54:52.394Z,37.12
2018-04-10T09:56:01.613Z,37.21
2018-04-10T09:57:11.029Z,37.21
2018-04-10T09:58:20.439Z,37.02
2018-04-10T09:59:29.615Z,36.92
2018-04-10T10:00:39.274Z,37.3
2018-04-10T10:01:48.449Z,37.21
2018-04-10T10:02:57.629Z,36.92
2018-04-10T10:04:07.047Z,37.21
2018-04-10T10:05:16.200Z,37.21
2018-04-10T10:06:25.674Z,37.21
2018-04-10T10:07:34.894Z,37.21
2018-04-10T10:08:44.134Z,37.12
2018-04-10T10:09:52.836Z,37.21
2018-04-10T10:11:02.316Z,37.21
2018-04-10T10:12:11.501Z,37.21
2018-04-10T10:13:20.940Z,37.02
2018-04-10T10:14:30.405Z,37.02
2018-04-10T10:15:39.595Z,37.02
2018-04-10T10:16:49.304Z,37.12
2018-04-10T10:17:58.534Z,37.21
2018-04-10T10:19:07.758Z,37.21
2018-04-10T10:20:16.939Z,37.3
2018-04-10T10:21:25.849Z,37.02
2018-04-10T10:22:35.135Z,37.3
2018-04-10T10:23:44.853Z,36.92
2018-04-10T10:24:54.293Z,37.3
2018-04-10T10:26:03.817Z,36.92
2018-04-10T10:27:12.754Z,37.3
2018-04-10T10:28:21.926Z,36.92
2018-04-10T10:29:31.123Z,37.02
2018-04-10T10:30:40.873Z,36.92
2018-04-10T10:31:49.890Z,37.12
2018-04-10T10:32:59.710Z,37.3
2018-04-10T10:34:09.030Z,36.92
2018-04-10T10:35:18.596Z,36.82
2018-04-10T10:36:27.806Z,37.02
2018-04-10T10:37:37.012Z,37.12
2018-04-10T10:38:46.025Z,36.82
2018-04-10T10:39:55.465Z,37.12
2018-04-10T10:41:04.918Z,36.92
2018-04-10T10:42:13.568Z,36.92
2018-04-10T10:43:22.268Z,36.92
2018-04-10T10:44:31.786Z,37.02
2018-04-10T10:45:41.245Z,36.92
2018-04-10T10:46:50.930Z,37.12
2018-04-10T10:48:00.443Z,36.92
2018-04-10T10:49:09.913Z,36.92
2018-04-10T10:50:19.346Z,37.02
2018-04-10T10:51:28.775Z,37.02
2018-04-10T10:52:37.950Z,36.92
2018-04-10T10:53:47.177Z,37.02
2018-04-10T10:54:56.440Z,37.12
2018-04-10T10:56:06.159Z,37.02
2018-04-10T10:57:15.573Z,36.92
2018-04-10T10:58:24.460Z,37.12
2018-04-10T10:59:33.640Z,37.12
2018-04-10T11:00:43.115Z,37.12
2018-04-10T11:01:52.368Z,37.12
2018-04-10T11:03:01.042Z,37.12
2018-04-10T11:04:10.248Z,36.92
2018-04-10T11:05:19.473Z,37.02
2018-04-10T11:06:28.797Z,37.12
2018-04-10T11:07:38.053Z,37.12
2018-04-10T11:08:47.007Z,37.02
2018-04-10T11:09:56.222Z,37.02
2018-04-10T11:11:05.812Z,37.02
2018-04-10T11:12:15.031Z,37.12
2018-04-10T11:13:23.949Z,37.12
2018-04-10T11:14:33.471Z,36.92
2018-04-10T11:15:42.656Z,37.12
2018-04-10T11:16:52.371Z,37.02
2018-04-10T11:18:02.076Z,37.02
2018-04-10T11:19:11.259Z,37.02
2018-04-10T11:20:20.499Z,37.21
2018-04-10T11:21:30.045Z,37.21
2018-04-10T11:22:39.267Z,37.02
2018-04-10T11:23:48.502Z,37.12
2018-04-10T11:24:57.996Z,37.12
2018-04-10T11:26:07.289Z,37.21
2018-04-10T11:27:16.756Z,37.21
2018-04-10T11:28:25.972Z,37.12
2018-04-10T11:29:35.220Z,37.21
2018-04-10T11:30:44.151Z,37.12
2018-04-10T11:31:53.334Z,37.12
2018-04-10T11:33:02.741Z,37.12
2018-04-10T11:34:11.905Z,37.02
2018-04-10T11:35:20.819Z,37.12
2018-04-10T11:36:30.007Z,37.12
2018-04-10T11:37:39.226Z,37.12
2018-04-10T11:38:48.657Z,37.12
2018-04-10T11:39:58.127Z,37.02
2018-04-10T11:41:07.594Z,37.02
2018-04-10T11:42:16.272Z,37.02
2018-04-10T11:43:25.730Z,36.92
2018-04-10T11:44:34.645Z,37.12
2018-04-10T11:45:44.151Z,37.02
2018-04-10T11:46:53.082Z,37.02
2018-04-10T11:48:02.523Z,37.02
2018-04-10T11:49:11.825Z,37.12
2018-04-10T11:50:21.003Z,37.02
2018-04-10T11:51:29.694Z,37.12
2018-04-10T11:52:38.896Z,37.02
2018-04-10T11:53:48.139Z,37.02
2018-04-10T11:54:56.791Z,37.12
2018-04-10T11:56:06.320Z,37.12
2018-04-10T11:57:15.231Z,36.92
2018-04-10T11:58:24.193Z,37.02
2018-04-10T11:59:33.897Z,36.92
2018-04-10T12:00:42.865Z,36.82
2018-04-10T12:01:52.315Z,36.82
2018-04-10T12:03:01.315Z,37.02
2018-04-10T12:04:10.551Z,36.82
2018-04-10T12:05:20.020Z,36.82
2018-04-10T12:06:29.454Z,37.02
2018-04-10T12:07:38.972Z,36.92
2018-04-10T12:08:48.654Z,36.72
2018-04-10T12:09:57.817Z,36.63
2018-04-10T12:11:06.985Z,36.82
2018-04-10T12:12:16.421Z,36.72
2018-04-10T12:13:25.319Z,36.72
2018-04-10T12:14:35.178Z,36.63
2018-04-10T12:15:44.363Z,36.92
2018-04-10T12:16:53.809Z,36.9
2018-04-10T12:18:02.677Z,36.63
2018-04-10T12:19:12.104Z,36.63
2018-04-10T12:20:21.536Z,36.92
2018-04-10T12:21:31.242Z,36.82
2018-04-10T12:22:39.916Z,36.92
2018-04-10T12:23:49.116Z,36.82
2018-04-10T12:24:57.793Z,37.12
2018-04-10T12:26:06.708Z,36.82
2018-04-10T12:27:15.627Z,36.92
2018-04-10T12:28:24.817Z,36.82
2018-04-10T12:29:34.030Z,36.92
2018-04-10T12:30:43.303Z,36.92
2018-04-10T12:31:52.843Z,36.72
2018-04-10T12:33:01.516Z,36.82
2018-04-10T12:34:10.975Z,36.92
2018-04-10T12:35:20.152Z,36.92
2018-04-10T12:36:28.868Z,36.82
2018-04-10T12:37:38.676Z,36.92
2018-04-10T12:38:48.440Z,36.92
2018-04-10T12:39:58.143Z,36.63
2018-04-10T12:41:07.322Z,36.82
2018-04-10T12:42:16.520Z,36.63
2018-04-10T12:43:25.436Z,36.63
2018-04-10T12:44:34.655Z,36.92
2018-04-10T12:45:43.369Z,37.02
2018-04-10T12:46:52.020Z,36.92
2018-04-10T12:48:00.915Z,36.92
2018-04-10T12:49:10.568Z,36.92
2018-04-10T12:50:19.726Z,36.92
2018-04-10T12:51:28.681Z,36.72
2018-04-10T12:52:38.170Z,36.92
2018-04-10T12:53:47.391Z,36.72
2018-04-10T12:54:56.331Z,36.82
2018-04-10T12:56:05.570Z,36.82
2018-04-10T12:57:14.218Z,36.82
2018-04-10T12:58:23.706Z,36.92
2018-04-10T12:59:33.146Z,36.72
2018-04-10T13:00:42.637Z,36.82
2018-04-10T13:01:51.847Z,36.72
2018-04-10T13:03:01.606Z,36.92
2018-04-10T13:04:10.844Z,36.72
2018-04-10T13:05:20.298Z,36.72
2018-04-10T13:06:29.515Z,36.92
2018-04-10T13:07:38.789Z,36.92
2018-04-10T13:08:48.256Z,36.92
2018-04-10T13:09:57.459Z,36.92
2018-04-10T13:11:06.529Z,36.92
2018-04-10T13:12:15.447Z,36.92
2018-04-10T13:13:24.493Z,36.82
2018-04-10T13:14:33.689Z,36.92
2018-04-10T13:15:43.148Z,36.63
2018-04-10T13:16:52.104Z,36.82
2018-04-10T13:18:01.039Z,36.72
2018-04-10T13:19:10.245Z,36.72
2018-04-10T13:20:19.771Z,36.63
2018-04-10T13:21:28.937Z,36.72
2018-04-10T13:22:38.111Z,36.63
2018-04-10T13:23:47.317Z,36.72
2018-04-10T13:24:56.820Z,36.82
2018-04-10T13:26:05.852Z,36.82
2018-04-10T13:27:15.378Z,36.72
2018-04-10T13:28:24.874Z,36.82
2018-04-10T13:29:34.147Z,36.63
2018-04-10T13:30:43.366Z,36.72
2018-04-10T13:31:52.101Z,36.63
2018-04-10T13:33:00.839Z,36.53
2018-04-10T13:34:09.782Z,36.53
2018-04-10T13:35:19.616Z,36.53
2018-04-10T13:36:29.075Z,36.53
2018-04-10T13:37:37.990Z,36.53
2018-04-10T13:38:47.452Z,36.53
2018-04-10T13:39:56.375Z,36.24
2018-04-10T13:41:06.085Z,36.44
2018-04-10T13:42:15.065Z,36.53
2018-04-10T13:43:24.390Z,36.53
2018-04-10T13:44:33.396Z,36.44
2018-04-10T13:45:42.927Z,36.24
2018-04-10T13:46:52.132Z,36.05
2018-04-10T13:48:01.320Z,36.44
2018-04-10T13:49:10.282Z,36.24
2018-04-10T13:50:19.520Z,36.44
2018-04-10T13:51:28.469Z,36.55
2018-04-10T13:52:37.421Z,36.63
2018-04-10T13:53:46.366Z,36.65
2018-04-10T13:54:55.819Z,36.46
2018-04-10T13:56:05.022Z,36.36
2018-04-10T13:57:14.475Z,36.36
2018-04-10T13:58:23.736Z,36.55
2018-04-10T13:59:33.234Z,36.55
2018-04-10T14:00:42.806Z,36.26
2018-04-10T14:01:52.078Z,36.44
2018-04-10T14:03:00.770Z,36.44
2018-04-10T14:04:09.947Z,36.44
2018-04-10T14:05:19.156Z,36.44
2018-04-10T14:06:28.859Z,36.53
2018-04-10T14:07:38.304Z,36.46
2018-04-10T14:08:47.258Z,36.44
2018-04-10T14:09:56.706Z,36.05
2018-04-10T14:11:05.658Z,36.15
2018-04-10T14:12:15.159Z,36.24
2018-04-10T14:13:24.150Z,36.36
2018-04-10T14:14:33.362Z,36.53
2018-04-10T14:15:42.316Z,36.53
2018-04-10T14:16:51.519Z,36.53
2018-04-10T14:18:01.287Z,36.34
2018-04-10T14:19:10.245Z,36.53
2018-04-10T14:20:19.480Z,36.53
2018-04-10T14:21:28.450Z,36.53
2018-04-10T14:22:37.913Z,36.34
2018-04-10T14:23:46.862Z,36.34
2018-04-10T14:24:56.309Z,36.24
2018-04-10T14:26:05.242Z,36.34
2018-04-10T14:27:14.988Z,36.44
2018-04-10T14:28:24.767Z,36.53
2018-04-10T14:29:33.727Z,36.44
2018-04-10T14:30:42.886Z,36.53
2018-04-10T14:31:51.615Z,36.53
2018-04-10T14:33:00.829Z,36.63
2018-04-10T14:34:10.281Z,36.53
2018-04-10T14:35:18.967Z,36.44
2018-04-10T14:36:28.177Z,36.44
2018-04-10T14:37:37.889Z,36.53
2018-04-10T14:38:46.870Z,36.53
2018-04-10T14:39:55.595Z,36.44
2018-04-10T14:41:04.533Z,36.53
2018-04-10T14:42:13.989Z,36.44
2018-04-10T14:43:23.838Z,36.44
2018-04-10T14:44:33.563Z,36.53
2018-04-10T14:45:42.234Z,36.53
2018-04-10T14:46:51.214Z,36.63
2018-04-10T14:48:00.712Z,36.53
2018-04-10T14:49:09.700Z,36.53
2018-04-10T14:50:18.720Z,36.44
2018-04-10T14:51:28.468Z,36.44
2018-04-10T14:52:38.159Z,36.44
2018-04-10T14:53:47.854Z,36.44
2018-04-10T14:54:57.280Z,36.44
2018-04-10T14:56:06.691Z,36.44
2018-04-10T14:57:16.373Z,36.53
2018-04-10T14:58:25.593Z,36.44
2018-04-10T14:59:34.756Z,36.44
2018-04-10T15:00:43.923Z,36.44
2018-04-10T15:01:53.094Z,36.44